Time;durP1;ratioP1;P1;durP2;ratioP2;P2;SDS_P1;SDS_P2;PMS_P1;PMS_P2;Temp;Humidity;BMP_temperature;BMP_pressure;BME280_temperature;BME280_humidity;BME280_pressure;Samples;Min_cycle;Max_cycle;Signal;HPM_P1;HPM_P2
2022/03/03 00:01:16;;;;;;;144.75;129.10;;;6.10;63.70;;;;;;5016732;28;19925;-80
2022/03/03 00:03:42;;;;;;;;;;;6.00;63.70;;;;;;5034865;28;20133;-80
2022/03/03 00:06:09;;;;;;;143.20;127.78;;;5.90;64.00;;;;;;5016674;28;20516;-80
2022/03/03 00:08:36;;;;;;;;;;;5.90;63.90;;;;;;5016312;28;20137;-80
2022/03/03 00:11:04;;;;;;;144.48;128.68;;;5.80;64.40;;;;;;5031846;28;19925;-80
2022/03/03 00:13:31;;;;;;;144.20;128.80;;;5.80;64.30;;;;;;5016242;28;20790;-80
2022/03/03 00:15:58;;;;;;;;;;;5.90;64.60;;;;;;5027502;28;20444;-80
2022/03/03 00:18:25;;;;;;;147.35;131.18;;;5.90;64.40;;;;;;5052188;28;20032;-80
2022/03/03 00:20:52;;;;;;;147.18;131.25;;;5.90;64.50;;;;;;5022026;28;20472;-80
2022/03/03 00:23:18;;;;;;;;;;;5.90;64.40;;;;;;5016298;28;20093;-80
2022/03/03 00:25:45;;;;;;;148.45;132.75;;;5.90;64.00;;;;;;5015811;28;19926;-80
2022/03/03 00:28:14;;;;;;;144.98;129.27;;;5.90;64.10;;;;;;5032245;28;20046;-80
2022/03/03 00:30:40;;;;;;;146.50;130.88;;;5.90;64.20;;;;;;4999022;28;20049;-80
2022/03/03 00:33:07;;;;;;;;;;;6.00;64.20;;;;;;5016162;28;20061;-79
2022/03/03 00:35:34;;;;;;;141.85;126.43;;;6.00;63.80;;;;;;5034064;28;19968;-79
2022/03/03 00:38:01;;;;;;;;;;;6.00;63.90;;;;;;5015705;28;20057;-80
2022/03/03 00:40:28;;;;;;;;;;;6.00;63.60;;;;;;5016755;28;19925;-80
2022/03/03 00:42:54;;;;;;;;;;;5.90;63.70;;;;;;5033020;28;19925;-80
2022/03/03 00:45:23;;;;;;;143.57;127.85;;;5.80;64.10;;;;;;5016667;28;19926;-80
2022/03/03 00:47:50;;;;;;;145.00;129.35;;;5.80;63.90;;;;;;5031821;28;20077;-80
2022/03/03 00:50:17;;;;;;;;;;;5.70;64.20;;;;;;5033241;28;20545;-80
2022/03/03 00:52:44;;;;;;;;;;;5.60;64.40;;;;;;5034174;28;19936;-80
2022/03/03 00:55:10;;;;;;;145.43;128.98;;;5.60;64.60;;;;;;5012210;28;20032;-80
2022/03/03 00:57:37;;;;;;;;;;;5.60;64.60;;;;;;5012357;28;20544;-80
2022/03/03 01:00:06;;;;;;;143.38;127.70;;;5.60;64.50;;;;;;4999506;28;20399;-80
2022/03/03 01:02:34;;;;;;;144.38;128.55;;;5.60;64.60;;;;;;5031801;28;20124;-80
2022/03/03 01:05:01;;;;;;;142.93;127.32;;;5.70;64.80;;;;;;5033236;28;20050;-80
2022/03/03 01:07:28;;;;;;;;;;;5.70;64.70;;;;;;5014372;28;20046;-80
2022/03/03 01:09:55;;;;;;;141.90;126.50;;;5.70;64.30;;;;;;5015547;28;19936;-80
2022/03/03 01:12:22;;;;;;;143.55;128.07;;;5.70;64.30;;;;;;5015415;28;20096;-80
2022/03/03 01:14:49;;;;;;;;;;;5.70;64.40;;;;;;5033628;28;20205;-80
2022/03/03 01:17:16;;;;;;;146.13;130.43;;;5.70;64.20;;;;;;4998721;28;19929;-80
2022/03/03 01:19:44;;;;;;;144.60;128.98;;;5.70;64.30;;;;;;5014815;28;20053;-80
2022/03/03 01:22:11;;;;;;;142.82;127.60;;;5.70;64.60;;;;;;5014805;28;20050;-80
2022/03/03 01:24:38;;;;;;;143.57;128.10;;;5.80;64.70;;;;;;5031375;28;20065;-80
2022/03/03 01:27:05;;;;;;;;;;;5.80;64.50;;;;;;5031912;28;20603;-80
2022/03/03 01:29:32;;;;;;;143.30;127.15;;;5.70;64.30;;;;;;5015297;28;20215;-80
2022/03/03 01:31:59;;;;;;;145.00;129.32;;;5.70;64.50;;;;;;5029461;28;20050;-79
2022/03/03 01:34:25;;;;;;;;;;;5.70;64.60;;;;;;5032053;28;20053;-80
2022/03/03 01:36:54;;;;;;;145.38;129.73;;;5.70;64.50;;;;;;5014957;28;19937;-80
2022/03/03 01:39:21;;;;;;;142.75;127.45;;;5.60;64.40;;;;;;5014553;28;20070;-80
2022/03/03 01:41:48;;;;;;;143.60;128.00;;;5.60;64.50;;;;;;5031741;28;20065;-79
2022/03/03 01:44:15;;;;;;;145.43;129.45;;;5.60;64.60;;;;;;5014711;28;20084;-80
2022/03/03 01:46:48;;;;;;;;;;;5.60;64.70;;;;;;5015440;28;20060;-79
2022/03/03 01:49:15;;;;;;;142.93;127.38;;;5.60;64.50;;;;;;5014595;28;19926;-79
2022/03/03 01:51:42;;;;;;;;;;;5.60;64.80;;;;;;5032975;28;20050;-80
2022/03/03 01:54:11;;;;;;;142.90;127.22;;;5.60;64.50;;;;;;5033284;28;20317;-80
2022/03/03 01:56:38;;;;;;;143.75;128.23;;;5.60;64.90;;;;;;5031017;28;20532;-80
2022/03/03 01:59:05;;;;;;;142.93;127.50;;;5.50;65.00;;;;;;5032205;28;20053;-80
2022/03/03 02:01:33;;;;;;;142.88;127.70;;;5.50;65.10;;;;;;5014553;28;20054;-80
2022/03/03 02:04:00;;;;;;;141.93;126.72;;;5.50;65.10;;;;;;5014715;28;20373;-80
2022/03/03 02:06:26;;;;;;;;;;;5.50;65.10;;;;;;5014825;28;20720;-80
2022/03/03 02:08:54;;;;;;;139.88;124.82;;;5.50;64.20;;;;;;5012712;28;19925;-80
2022/03/03 02:11:22;;;;;;;139.32;124.32;;;5.40;64.60;;;;;;5014551;28;20520;-80
2022/03/03 02:13:50;;;;;;;140.75;125.55;;;5.40;64.80;;;;;;5014525;28;20057;-79
2022/03/03 02:16:17;;;;;;;140.63;125.55;;;5.30;64.70;;;;;;4998141;28;20053;-80
2022/03/03 02:18:44;;;;;;;141.73;126.40;;;5.30;64.90;;;;;;5014832;28;20042;-80
2022/03/03 02:21:13;;;;;;;140.93;125.88;;;5.30;65.00;;;;;;5032222;28;20058;-80
2022/03/03 02:23:40;;;;;;;142.13;126.80;;;5.20;65.10;;;;;;5014452;28;20050;-80
2022/03/03 02:26:08;;;;;;;;;;;5.20;65.20;;;;;;4998553;28;20050;-80
2022/03/03 02:28:35;;;;;;;144.05;128.10;;;5.20;64.80;;;;;;5014300;28;19925;-80
2022/03/03 02:31:02;;;;;;;142.55;127.00;;;5.20;65.00;;;;;;5014408;28;20057;-80
2022/03/03 02:33:28;;;;;;;142.98;127.47;;;5.10;64.80;;;;;;5014322;28;20054;-80
2022/03/03 02:35:55;;;;;;;144.07;128.48;;;5.10;64.90;;;;;;5016636;28;20042;-80
2022/03/03 02:38:24;;;;;;;144.23;127.90;;;5.10;65.10;;;;;;5000757;28;20045;-79
2022/03/03 02:40:50;;;;;;;141.38;125.97;;;5.10;65.40;;;;;;5035799;28;20108;-79
2022/03/03 02:43:17;;;;;;;143.73;128.15;;;5.10;65.40;;;;;;5017463;28;20058;-79
2022/03/03 02:45:44;;;;;;;;;;;5.10;65.50;;;;;;5032994;28;20553;-79
2022/03/03 02:48:11;;;;;;;142.23;126.70;;;5.00;65.10;;;;;;5017476;28;19925;-79
2022/03/03 02:50:38;;;;;;;142.77;127.15;;;5.00;65.40;;;;;;5033860;28;20054;-79
2022/03/03 02:53:05;;;;;;;141.18;125.75;;;5.00;65.50;;;;;;5017385;28;20060;-80
2022/03/03 02:55:33;;;;;;;;;;;5.00;65.40;;;;;;5017482;28;20602;-80
2022/03/03 02:58:00;;;;;;;143.20;127.53;;;5.00;65.10;;;;;;5017216;28;20429;-79
2022/03/03 03:00:31;;;;;;;140.07;124.90;;;4.90;65.10;;;;;;5017546;28;20061;-80
2022/03/03 03:02:57;;;;;;;142.82;127.40;;;4.90;65.20;;;;;;5017401;28;20054;-79
2022/03/03 03:05:24;;;;;;;140.40;125.50;;;4.90;65.30;;;;;;5017930;28;20053;-80
2022/03/03 03:07:53;;;;;;;145.52;129.60;;;4.80;65.20;;;;;;5034726;28;20526;-79
2022/03/03 03:10:21;;;;;;;140.98;125.70;;;4.80;65.40;;;;;;5034636;28;20085;-79
2022/03/03 03:12:49;;;;;;;143.38;127.90;;;4.80;65.40;;;;;;5033822;28;20050;-80
2022/03/03 03:15:17;;;;;;;146.30;130.82;;;4.70;65.70;;;;;;5016972;28;20049;-79
2022/03/03 03:17:44;;;;;;;143.57;128.15;;;4.60;65.90;;;;;;5033356;28;20077;-79
2022/03/03 03:20:12;;;;;;;142.70;127.63;;;4.60;65.80;;;;;;5015031;28;20054;-79
2022/03/03 03:22:39;;;;;;;141.23;125.93;;;4.60;65.70;;;;;;5017338;28;20057;-79
2022/03/03 03:25:08;;;;;;;141.90;126.65;;;4.60;65.80;;;;;;5000921;28;20081;-79
2022/03/03 03:27:36;;;;;;;142.60;127.20;;;4.50;66.00;;;;;;5016312;28;20050;-79
2022/03/03 03:30:05;;;;;;;143.23;127.78;;;4.50;66.10;;;;;;5016778;28;20053;-79
2022/03/03 03:32:32;;;;;;;143.63;128.45;;;4.50;66.00;;;;;;5016497;28;20053;-79
2022/03/03 03:34:59;;;;;;;143.50;128.27;;;4.40;65.90;;;;;;5016615;28;20042;-80
2022/03/03 03:37:26;;;;;;;144.05;128.40;;;4.40;66.00;;;;;;5016469;28;20132;-79
2022/03/03 03:39:53;;;;;;;144.57;128.88;;;4.30;66.00;;;;;;5017092;28;20050;-80
2022/03/03 03:42:20;;;;;;;141.55;126.18;;;4.30;66.20;;;;;;5034775;28;20072;-80
2022/03/03 03:44:47;;;;;;;142.60;127.30;;;4.30;66.20;;;;;;5016008;28;20057;-79
2022/03/03 03:47:16;;;;;;;;;;;4.20;65.90;;;;;;5017255;28;20204;-80
2022/03/03 03:49:42;;;;;;;142.75;127.07;;;4.10;65.20;;;;;;5033205;28;19925;-79
2022/03/03 03:52:09;;;;;;;140.38;125.25;;;4.00;65.70;;;;;;5033251;28;20065;-79
2022/03/03 03:54:36;;;;;;;141.73;126.28;;;3.90;65.80;;;;;;5016424;28;20540;-79
2022/03/03 03:57:04;;;;;;;142.50;127.07;;;3.90;65.90;;;;;;5014429;28;20570;-79
2022/03/03 03:59:31;;;;;;;142.88;127.13;;;3.80;65.90;;;;;;5016407;28;20133;-79
2022/03/03 04:01:58;;;;;;;142.85;127.63;;;3.80;66.20;;;;;;5016321;28;20046;-79
2022/03/03 04:04:26;;;;;;;143.38;127.78;;;3.80;66.30;;;;;;5034082;28;20046;-79
2022/03/03 04:06:53;;;;;;;143.15;127.55;;;3.80;66.40;;;;;;5033571;28;20667;-79
2022/03/03 04:09:20;;;;;;;142.63;127.30;;;3.80;66.70;;;;;;5015803;28;20512;-79
2022/03/03 04:11:47;;;;;;;143.77;128.45;;;3.70;66.80;;;;;;5016115;28;20095;-79
2022/03/03 04:14:14;;;;;;;145.63;129.52;;;3.70;66.80;;;;;;5015880;28;20121;-79
2022/03/03 04:16:41;;;;;;;142.25;126.88;;;3.70;66.90;;;;;;5016065;28;20470;-79
2022/03/03 04:19:08;;;;;;;142.85;127.13;;;3.70;67.00;;;;;;4999150;28;20125;-79
2022/03/03 04:21:36;;;;;;;142.63;127.03;;;3.60;67.20;;;;;;5016080;28;20117;-79
2022/03/03 04:24:03;;;;;;;141.18;125.90;;;3.60;67.40;;;;;;5016108;28;20054;-79
2022/03/03 04:26:30;;;;;;;;;;;3.50;67.50;;;;;;5016120;28;20050;-79
2022/03/03 04:28:57;;;;;;;141.50;126.00;;;3.50;67.70;;;;;;5032640;28;20023;-79
2022/03/03 04:31:23;;;;;;;144.15;128.38;;;3.50;67.70;;;;;;5014802;28;20065;-79
2022/03/03 04:33:51;;;;;;;144.50;128.82;;;3.50;68.00;;;;;;5015315;28;20077;-79
2022/03/03 04:36:18;;;;;;;143.70;127.75;;;3.40;68.10;;;;;;5032371;28;20525;-79
2022/03/03 04:38:48;;;;;;;143.52;127.82;;;3.50;68.20;;;;;;5032087;28;20046;-79
2022/03/03 04:41:15;;;;;;;140.52;125.32;;;3.50;68.40;;;;;;5016117;28;20105;-79
2022/03/03 04:43:42;;;;;;;140.07;124.88;;;3.40;68.50;;;;;;5015826;28;20062;-79
2022/03/03 04:46:09;;;;;;;141.20;125.97;;;3.40;68.50;;;;;;5015110;28;20136;-79
2022/03/03 04:48:36;;;;;;;141.40;126.13;;;3.30;68.60;;;;;;5033363;28;20500;-79
2022/03/03 04:51:03;;;;;;;143.15;127.32;;;3.30;68.80;;;;;;5015814;28;20507;-79
2022/03/03 04:53:31;;;;;;;140.63;125.22;;;3.30;68.70;;;;;;5015749;28;20508;-79
2022/03/03 04:56:00;;;;;;;141.13;125.78;;;3.30;68.90;;;;;;5015693;28;20050;-79
2022/03/03 04:58:26;;;;;;;140.25;125.00;;;3.30;68.90;;;;;;5014296;28;20045;-79
2022/03/03 05:00:53;;;;;;;139.13;124.03;;;3.30;68.90;;;;;;5032009;28;20516;-79
2022/03/03 05:03:20;;;;;;;139.63;124.22;;;3.30;68.80;;;;;;5015055;28;20052;-79
2022/03/03 05:05:47;;;;;;;138.32;123.53;;;3.30;68.70;;;;;;5031834;28;20046;-79
2022/03/03 05:08:14;;;;;;;138.48;123.10;;;3.30;68.80;;;;;;5030934;28;20432;-79
2022/03/03 05:10:41;;;;;;;136.73;121.80;;;3.30;68.80;;;;;;5015077;28;20064;-79
2022/03/03 05:13:09;;;;;;;137.13;122.43;;;3.30;68.80;;;;;;5015302;28;20523;-79
2022/03/03 05:15:36;;;;;;;139.18;124.10;;;3.20;68.80;;;;;;5015008;28;20141;-79
2022/03/03 05:18:03;;;;;;;136.88;122.15;;;3.20;68.80;;;;;;5015176;28;20054;-79
2022/03/03 05:20:30;;;;;;;138.00;123.03;;;3.10;68.90;;;;;;5015430;28;20064;-79
2022/03/03 05:22:57;;;;;;;;;;;3.20;68.90;;;;;;4999460;28;20540;-79
2022/03/03 05:25:24;;;;;;;137.38;122.38;;;3.20;68.80;;;;;;5015472;28;19925;-79
2022/03/03 05:27:51;;;;;;;138.15;122.95;;;3.10;68.80;;;;;;5014982;28;20129;-79
2022/03/03 05:30:20;;;;;;;138.05;122.97;;;3.10;68.80;;;;;;5033246;28;20057;-79
2022/03/03 05:32:49;;;;;;;142.50;124.38;;;3.00;68.80;;;;;;5031397;28;20148;-79
2022/03/03 05:35:18;;;;;;;143.30;124.65;;;3.00;68.80;;;;;;5031397;28;20061;-79
2022/03/03 05:37:46;;;;;;;140.38;123.90;;;3.00;69.00;;;;;;5032748;28;20062;-79
2022/03/03 05:40:13;;;;;;;139.13;124.07;;;3.10;69.10;;;;;;5015243;28;20046;-79
2022/03/03 05:42:40;;;;;;;138.80;123.90;;;3.10;69.00;;;;;;5015032;28;20081;-79
2022/03/03 05:45:08;;;;;;;136.48;121.80;;;3.10;69.00;;;;;;5012883;28;20050;-79
2022/03/03 05:47:37;;;;;;;138.70;123.65;;;3.20;69.20;;;;;;5014954;28;20752;-80
2022/03/03 05:50:05;;;;;;;140.13;124.65;;;3.30;69.10;;;;;;5015167;28;20558;-79
2022/03/03 05:52:32;;;;;;;137.98;123.20;;;3.30;69.00;;;;;;5032381;28;20352;-79
2022/03/03 05:55:00;;;;;;;137.30;122.30;;;3.30;68.70;;;;;;5014286;28;20050;-79
2022/03/03 05:57:32;;;;;;;137.57;122.97;;;3.40;68.70;;;;;;5014539;28;20049;-79
2022/03/03 06:00:05;;;;;;;137.05;122.70;;;3.40;68.50;;;;;;5014478;28;20133;-79
2022/03/03 06:02:48;;;;;;;138.27;123.70;;;3.40;68.30;;;;;;5014906;28;20069;-79
2022/03/03 06:05:18;;;;;;;139.65;124.82;;;3.40;68.40;;;;;;5015353;28;20050;-79
2022/03/03 06:07:48;;;;;;;138.90;124.20;;;3.50;68.50;;;;;;5032838;28;20061;-79
2022/03/03 06:10:19;;;;;;;135.32;121.10;;;3.40;68.10;;;;;;5017008;28;20050;-79
2022/03/03 06:12:48;;;;;;;137.02;122.32;;;3.40;67.90;;;;;;5018478;28;20055;-79
2022/03/03 06:15:15;;;;;;;138.43;123.75;;;3.50;67.90;;;;;;5018592;28;20515;-79
2022/03/03 06:17:44;;;;;;;;;;;3.40;67.50;;;;;;5018979;28;20129;-79
2022/03/03 06:20:13;;;;;;;135.73;120.95;;;3.30;67.10;;;;;;5018539;28;19995;-79
2022/03/03 06:22:40;;;;;;;138.15;123.05;;;3.30;67.60;;;;;;5018412;28;20054;-78
2022/03/03 06:25:08;;;;;;;135.57;120.97;;;3.30;67.70;;;;;;5036309;28;20504;-79
2022/03/03 06:27:36;;;;;;;135.45;121.15;;;3.30;67.80;;;;;;5018131;28;20046;-78
2022/03/03 06:30:04;;;;;;;134.27;119.85;;;3.30;67.80;;;;;;5036471;28;20157;-79
2022/03/03 06:32:32;;;;;;;136.55;121.68;;;3.30;67.70;;;;;;5036408;28;20081;-79
2022/03/03 06:35:00;;;;;;;135.93;121.78;;;3.30;67.50;;;;;;5034550;28;20053;-78
2022/03/03 06:37:27;;;;;;;134.40;120.22;;;3.30;67.40;;;;;;5018123;28;20050;-79
2022/03/03 06:39:54;;;;;;;135.18;121.10;;;3.30;67.40;;;;;;5018246;28;20077;-79
2022/03/03 06:42:21;;;;;;;134.00;119.75;;;3.30;67.50;;;;;;5018253;28;20052;-79
2022/03/03 06:44:48;;;;;;;135.20;120.60;;;3.40;67.40;;;;;;5018513;28;20078;-79
2022/03/03 06:47:16;;;;;;;133.10;118.95;;;3.40;67.20;;;;;;5017839;28;20065;-79
2022/03/03 06:49:42;;;;;;;;;;;3.30;66.80;;;;;;5035615;28;20085;-80
2022/03/03 06:52:15;;;;;;;134.25;119.57;;;3.20;66.70;;;;;;5035180;28;19929;-80
2022/03/03 06:54:45;;;;;;;135.55;120.90;;;3.10;67.10;;;;;;5036177;28;20054;-78
2022/03/03 06:57:12;;;;;;;138.77;123.85;;;3.00;67.30;;;;;;5016966;28;20050;-80
2022/03/03 06:59:40;;;;;;;138.07;122.88;;;2.90;67.50;;;;;;5016116;28;20096;-79
2022/03/03 07:02:07;;;;;;;135.93;120.72;;;2.90;67.80;;;;;;5019208;28;20494;-80
2022/03/03 07:04:34;;;;;;;135.48;121.07;;;2.90;68.10;;;;;;5023254;28;20499;-80
2022/03/03 07:07:02;;;;;;;137.43;122.72;;;2.80;68.20;;;;;;5019101;28;21049;-79
2022/03/03 07:09:31;;;;;;;133.80;119.40;;;2.80;68.40;;;;;;5027488;28;20107;-79
2022/03/03 07:12:01;;;;;;;134.25;119.55;;;2.70;68.30;;;;;;5025598;28;20058;-79
2022/03/03 07:14:29;;;;;;;136.73;122.32;;;2.70;68.80;;;;;;5020442;28;20050;-80
2022/03/03 07:17:01;;;;;;;133.05;118.68;;;2.60;69.00;;;;;;5024591;28;20161;-78
2022/03/03 07:23:03;;;;;;;131.70;117.53;;;2.70;69.70;;;;;;5014411;28;20555;-80
2022/03/03 07:25:56;;;;;;;133.52;119.18;;;2.70;69.90;;;;;;4997725;28;20141;-78
2022/03/03 07:28:25;;;;;;;131.85;117.68;;;2.70;70.10;;;;;;4997708;28;20476;-80
2022/03/03 07:30:52;;;;;;;135.18;120.65;;;2.70;70.40;;;;;;5018614;28;20137;-79
2022/03/03 07:33:24;;;;;;;132.70;118.30;;;2.70;70.50;;;;;;5016905;28;20049;-79
2022/03/03 07:35:56;;;;;;;135.38;121.05;;;2.70;70.50;;;;;;5016613;28;20743;-79
2022/03/03 07:38:33;;;;;;;133.07;118.72;;;2.80;70.70;;;;;;5016904;28;20052;-79
2022/03/03 07:41:03;;;;;;;134.50;120.18;;;2.80;70.90;;;;;;5017071;28;20089;-79
2022/03/03 07:43:30;;;;;;;133.05;118.70;;;2.80;71.10;;;;;;5016795;28;20046;-77
2022/03/03 07:45:58;;;;;;;134.35;119.88;;;2.80;71.40;;;;;;5017329;28;20133;-78
2022/03/03 07:48:26;;;;;;;135.13;120.35;;;2.80;71.50;;;;;;5016526;28;20050;-78
2022/03/03 07:50:53;;;;;;;133.95;119.47;;;2.90;71.40;;;;;;5017004;28;20054;-78
2022/03/03 07:53:20;;;;;;;134.95;120.43;;;2.90;71.60;;;;;;5033596;28;20054;-78
2022/03/03 07:55:49;;;;;;;134.93;120.47;;;2.90;71.60;;;;;;5034745;28;20054;-78
2022/03/03 07:58:19;;;;;;;133.55;119.25;;;2.90;71.80;;;;;;5034700;28;20094;-78
2022/03/03 08:00:50;;;;;;;135.55;120.80;;;3.00;71.90;;;;;;5017018;28;20065;-78
2022/03/03 08:03:19;;;;;;;133.98;119.38;;;3.00;72.20;;;;;;5017175;28;20078;-78
2022/03/03 08:05:48;;;;;;;135.15;120.72;;;3.00;72.30;;;;;;5016230;28;20046;-77
2022/03/03 08:08:20;;;;;;;135.55;121.05;;;3.00;72.60;;;;;;4997654;28;20045;-78
2022/03/03 08:10:48;;;;;;;134.68;120.18;;;3.00;72.50;;;;;;5033538;28;20049;-77
2022/03/03 08:13:18;;;;;;;133.65;119.22;;;3.10;72.50;;;;;;5014744;28;20108;-78
2022/03/03 08:15:46;;;;;;;132.80;118.50;;;3.10;72.80;;;;;;5016486;28;20537;-78
2022/03/03 08:18:14;;;;;;;133.10;118.50;;;3.10;72.90;;;;;;5016948;28;20050;-78
2022/03/03 08:20:41;;;;;;;133.70;119.40;;;3.20;72.90;;;;;;5034771;28;20132;-77
2022/03/03 08:23:08;;;;;;;134.15;119.90;;;3.20;73.00;;;;;;5017312;28;20046;-78
2022/03/03 08:25:36;;;;;;;130.50;116.57;;;3.20;72.90;;;;;;5034869;28;20054;-78
2022/03/03 08:28:06;;;;;;;132.45;118.03;;;3.30;73.50;;;;;;5016693;28;20125;-78
2022/03/03 08:30:35;;;;;;;129.98;116.32;;;3.30;73.60;;;;;;5016803;28;20136;-78
2022/03/03 08:33:13;;;;;;;132.55;118.70;;;3.30;73.60;;;;;;5032066;28;20066;-75
2022/03/03 08:35:45;;;;;;;136.50;122.18;;;3.40;74.00;;;;;;5015698;28;20060;-76
2022/03/03 08:38:21;;;;;;;131.82;117.93;;;3.40;73.90;;;;;;5014231;28;20057;-76
2022/03/03 08:40:53;;;;;;;131.70;117.88;;;3.50;74.10;;;;;;5016305;28;20057;-76
2022/03/03 08:43:21;;;;;;;131.88;118.18;;;3.50;74.10;;;;;;5016498;28;20129;-76
2022/03/03 08:45:50;;;;;;;131.73;117.97;;;3.60;74.30;;;;;;5016613;28;20050;-76
2022/03/03 08:48:19;;;;;;;133.25;119.15;;;3.70;74.20;;;;;;5016452;28;20049;-76
2022/03/03 08:50:49;;;;;;;132.43;118.40;;;3.80;74.60;;;;;;5016081;28;20046;-77
2022/03/03 08:53:16;;;;;;;131.50;117.50;;;3.90;75.10;;;;;;5016299;28;20104;-79
2022/03/03 08:55:43;;;;;;;132.98;119.13;;;3.90;74.70;;;;;;5015853;28;20053;-75
2022/03/03 08:58:12;;;;;;;130.82;117.35;;;4.00;74.80;;;;;;5032491;28;20054;-79
2022/03/03 09:00:39;;;;;;;131.68;118.00;;;4.10;74.60;;;;;;5015394;28;20132;-78
2022/03/03 09:03:08;;;;;;;131.20;117.70;;;4.20;74.40;;;;;;5015140;28;20050;-77
2022/03/03 09:05:35;;;;;;;132.52;118.65;;;4.30;73.60;;;;;;5014906;28;20050;-77
2022/03/03 09:08:02;;;;;;;133.05;119.60;;;4.30;73.50;;;;;;5013430;28;20150;-76
2022/03/03 09:10:29;;;;;;;130.95;117.75;;;4.40;73.60;;;;;;5016224;28;20488;-78
2022/03/03 09:12:56;;;;;;;133.38;119.80;;;4.50;74.70;;;;;;5033152;28;20061;-78
2022/03/03 09:15:23;;;;;;;132.20;118.70;;;4.60;73.60;;;;;;5033942;28;20058;-79
2022/03/03 09:17:50;;;;;;;132.40;118.45;;;4.60;73.70;;;;;;5033880;28;20097;-78
2022/03/03 09:20:18;;;;;;;130.80;117.30;;;4.70;73.30;;;;;;5016607;28;20064;-77
2022/03/03 09:22:46;;;;;;;135.57;120.80;;;4.80;73.10;;;;;;5033553;28;20046;-77
2022/03/03 09:25:14;;;;;;;133.98;120.13;;;4.80;73.00;;;;;;5033511;28;20112;-77
2022/03/03 09:27:41;;;;;;;132.45;118.88;;;4.90;73.70;;;;;;5015772;28;20210;-78
2022/03/03 09:30:10;;;;;;;131.50;118.07;;;5.00;72.80;;;;;;5016030;28;20052;-77
2022/03/03 09:32:38;;;;;;;122.78;110.38;;;5.10;72.00;;;;;;5015425;28;20428;-77
2022/03/03 09:35:06;;;;;;;130.15;116.80;;;5.10;72.90;;;;;;5026752;28;20054;-78
2022/03/03 09:37:35;;;;;;;134.40;120.72;;;5.20;73.60;;;;;;5000020;28;20131;-78
2022/03/03 09:40:02;;;;;;;133.07;119.72;;;5.30;74.00;;;;;;5035708;28;20089;-78
2022/03/03 09:42:31;;;;;;;133.63;120.13;;;5.40;73.40;;;;;;5035730;28;20053;-77
2022/03/03 09:44:59;;;;;;;133.77;118.57;;;5.40;73.40;;;;;;5038506;28;20053;-79
2022/03/03 09:47:26;;;;;;;131.48;118.28;;;5.60;73.50;;;;;;5057038;28;20053;-79
2022/03/03 09:49:53;;;;;;;132.68;119.18;;;5.70;73.30;;;;;;5039056;28;20049;-79
2022/03/03 09:52:21;;;;;;;131.70;118.43;;;5.80;72.20;;;;;;5039057;28;20046;-79
2022/03/03 09:54:54;;;;;;;133.77;120.45;;;5.90;71.20;;;;;;5039150;28;20049;-79
2022/03/03 09:57:21;;;;;;;130.23;117.07;;;6.00;72.00;;;;;;5057287;28;20132;-79
2022/03/03 09:59:49;;;;;;;133.50;120.00;;;6.10;71.30;;;;;;5039114;28;20975;-81
2022/03/03 10:02:16;;;;;;;131.68;118.63;;;6.20;71.30;;;;;;5038866;28;20164;-78
2022/03/03 10:04:42;;;;;;;;;;;6.30;70.90;;;;;;5039455;28;20588;-78
2022/03/03 10:07:10;;;;;;;;;;;6.40;73.90;;;;;;5039515;28;19925;-79
2022/03/03 10:09:59;;;;;;;129.43;116.28;;;6.50;73.40;;;;;;5057016;28;19976;-79
2022/03/03 10:12:27;;;;;;;131.07;117.82;;;6.60;73.60;;;;;;5056506;28;20045;-79
2022/03/03 10:14:58;;;;;;;131.88;118.53;;;6.70;72.80;;;;;;5038420;28;20056;-79
2022/03/03 10:17:35;;;;;;;128.80;116.10;;;6.80;71.40;;;;;;5021966;28;20557;-80
2022/03/03 10:20:04;;;;;;;;;;;6.90;71.80;;;;;;5022747;28;20137;-80
2022/03/03 10:22:42;;;;;;;130.65;117.45;;;7.00;74.60;;;;;;5009263;28;19930;-78
2022/03/03 10:25:11;;;;;;;130.00;117.00;;;7.10;72.10;;;;;;5016032;28;20997;-79
2022/03/03 10:27:40;;;;;;;129.25;116.45;;;7.20;73.30;;;;;;4998489;28;20085;-80
2022/03/03 10:30:08;;;;;;;127.80;115.20;;;7.40;70.80;;;;;;5031532;28;20050;-80
2022/03/03 10:32:36;;;;;;;130.68;117.88;;;7.50;69.10;;;;;;5038555;28;20049;-80
2022/03/03 10:35:14;;;;;;;129.35;116.57;;;7.60;69.60;;;;;;5055190;28;20049;-80
2022/03/03 10:37:42;;;;;;;128.90;116.05;;;7.60;70.00;;;;;;5054962;28;21002;-80
2022/03/03 10:40:13;;;;;;;129.73;117.07;;;7.70;68.60;;;;;;5038085;28;20084;-79
2022/03/03 10:42:46;;;;;;;131.70;118.75;;;7.80;68.60;;;;;;5038577;28;20124;-79
2022/03/03 10:45:17;;;;;;;128.60;115.90;;;7.90;70.00;;;;;;5056510;28;20096;-79
2022/03/03 10:47:59;;;;;;;127.70;115.20;;;8.00;70.50;;;;;;5038340;28;20491;-80
2022/03/03 10:50:26;;;;;;;131.82;118.95;;;8.10;69.60;;;;;;5037894;28;20050;-79
2022/03/03 10:52:53;;;;;;;128.57;115.88;;;8.20;67.10;;;;;;5054382;28;20565;-79
2022/03/03 10:55:20;;;;;;;128.00;115.45;;;8.30;66.80;;;;;;5037213;28;20078;-78
2022/03/03 10:57:56;;;;;;;127.38;115.05;;;8.40;68.10;;;;;;5037896;28;20041;-77
2022/03/03 11:00:25;;;;;;;124.38;111.90;;;8.50;67.80;;;;;;5037564;28;20049;-78
2022/03/03 11:02:54;;;;;;;128.52;115.80;;;8.60;66.50;;;;;;5028554;28;20043;-78
2022/03/03 11:05:23;;;;;;;126.75;114.40;;;8.60;66.00;;;;;;4997747;28;20050;-78
2022/03/03 11:07:52;;;;;;;126.75;114.45;;;8.70;65.10;;;;;;5014355;28;20077;-80
2022/03/03 11:10:21;;;;;;;128.23;115.72;;;8.80;66.40;;;;;;5016833;28;20050;-80
2022/03/03 11:12:50;;;;;;;127.45;115.15;;;8.90;64.50;;;;;;5033019;28;20046;-80
2022/03/03 11:15:19;;;;;;;125.88;113.68;;;9.00;65.30;;;;;;5016893;28;20538;-80
2022/03/03 11:17:47;;;;;;;127.13;114.78;;;9.10;63.80;;;;;;5017233;28;20065;-80
2022/03/03 11:20:15;;;;;;;126.18;113.88;;;9.20;63.10;;;;;;5017252;28;20049;-80
2022/03/03 11:22:44;;;;;;;130.90;117.88;;;9.30;65.00;;;;;;5008698;28;20068;-80
2022/03/03 11:25:15;;;;;;;126.28;113.93;;;9.40;63.90;;;;;;5014372;28;20483;-80
2022/03/03 11:27:44;;;;;;;127.00;114.68;;;9.50;63.70;;;;;;5016319;28;20046;-80
2022/03/03 11:30:18;;;;;;;124.35;112.50;;;9.50;63.10;;;;;;5028407;28;20138;-79
2022/03/03 11:32:46;;;;;;;125.85;113.65;;;9.70;63.60;;;;;;5016508;28;20137;-79
2022/03/03 11:35:15;;;;;;;124.60;112.65;;;9.70;62.80;;;;;;5028431;28;20141;-79
2022/03/03 11:37:45;;;;;;;124.82;112.80;;;9.90;63.10;;;;;;5016584;28;20046;-79
2022/03/03 11:40:16;;;;;;;126.07;114.05;;;10.00;62.30;;;;;;5027311;28;20136;-80
2022/03/03 11:42:49;;;;;;;123.18;111.28;;;10.00;61.20;;;;;;4945845;28;20042;-80
2022/03/03 11:45:36;;;;;;;127.13;114.80;;;10.10;60.30;;;;;;5031317;28;20053;-81
2022/03/03 11:48:16;;;;;;;125.28;113.22;;;10.20;61.00;;;;;;5017434;28;20081;-81
2022/03/03 11:50:44;;;;;;;125.55;113.18;;;10.30;60.80;;;;;;5017434;28;20497;-81
2022/03/03 11:53:19;;;;;;;126.10;114.10;;;10.40;59.40;;;;;;5017038;28;20058;-81
2022/03/03 11:56:05;;;;;;;125.40;113.55;;;10.50;58.50;;;;;;4997414;28;20528;-82
2022/03/03 11:58:37;;;;;;;123.63;111.85;;;10.50;58.80;;;;;;5014024;28;20058;-81
2022/03/03 12:01:08;;;;;;;125.53;113.55;;;10.60;58.60;;;;;;5006297;28;20054;-81
2022/03/03 12:04:01;;;;;;;123.55;111.85;;;10.70;58.40;;;;;;5016773;28;20050;-82
2022/03/03 12:06:43;;;;;;;122.88;111.28;;;10.70;57.90;;;;;;5015509;28;20057;-80
2022/03/03 12:09:25;;;;;;;126.57;114.50;;;10.80;59.00;;;;;;5015747;28;20053;-80
2022/03/03 12:12:07;;;;;;;124.13;112.60;;;10.90;58.60;;;;;;5016831;28;20586;-80
2022/03/03 12:14:36;;;;;;;123.40;111.75;;;11.00;57.30;;;;;;5016689;28;20077;-80
2022/03/03 12:17:36;;;;;;;124.78;113.07;;;11.10;58.20;;;;;;5016497;28;20054;-79
2022/03/03 12:20:34;;;;;;;123.13;111.43;;;11.10;57.80;;;;;;5034412;28;20062;-82
2022/03/03 12:23:09;;;;;;;122.35;111.00;;;11.20;58.70;;;;;;5016630;28;20054;-80
2022/03/03 12:25:57;;;;;;;124.32;112.72;;;11.30;57.70;;;;;;5033502;28;20157;-81
2022/03/03 12:28:26;;;;;;;124.65;113.00;;;11.30;57.40;;;;;;5029354;28;20054;-81
2022/03/03 12:30:55;;;;;;;125.50;113.50;;;11.40;57.00;;;;;;4999377;28;20046;-81
2022/03/03 12:33:25;;;;;;;124.80;113.07;;;11.40;56.40;;;;;;5014513;28;20054;-80
2022/03/03 12:35:59;;;;;;;126.60;114.68;;;11.50;55.80;;;;;;5008457;28;20054;-81
2022/03/03 12:38:27;;;;;;;124.38;112.68;;;11.50;55.00;;;;;;5016614;28;20113;-82
2022/03/03 12:40:55;;;;;;;122.43;111.13;;;11.60;55.20;;;;;;5016459;28;20057;-81